sensor_id;sensor_type;location;lat;lon;timestamp;temperature;humidity
39345;DHT22;25061;51.954;6.996;2023-12-22T10:12:44;5.60;99.90
39345;DHT22;25061;51.954;6.996;2023-12-22T10:15:12;6.10;99.90
39345;DHT22;25061;51.954;6.996;2023-12-22T10:17:41;6.10;99.90
39345;DHT22;25061;51.954;6.996;2023-12-22T10:20:07;6.10;99.90
39345;DHT22;25061;51.954;6.996;2023-12-22T10:22:33;6.10;99.90
39345;DHT22;25061;51.954;6.996;2023-12-22T10:24:59;6.20;99.90
39345;DHT22;25061;51.954;6.996;2023-12-22T10:27:25;6.20;99.90
39345;DHT22;25061;51.954;6.996;2023-12-22T10:29:54;6.20;99.90
39345;DHT22;25061;51.954;6.996;2023-12-22T10:32:20;6.10;99.90
39345;DHT22;25061;51.954;6.996;2023-12-22T10:34:47;6.20;99.90
39345;DHT22;25061;51.954;6.996;2023-12-22T10:37:12;6.30;99.90
39345;DHT22;25061;51.954;6.996;2023-12-22T10:39:38;6.30;99.90
39345;DHT22;25061;51.954;6.996;2023-12-22T10:42:07;6.20;99.90
39345;DHT22;25061;51.954;6.996;2023-12-22T10:44:34;6.30;99.90
39345;DHT22;25061;51.954;6.996;2023-12-22T10:47:01;6.40;99.90
39345;DHT22;25061;51.954;6.996;2023-12-22T10:49:28;6.60;99.90
39345;DHT22;25061;51.954;6.996;2023-12-22T10:51:53;6.70;99.90
39345;DHT22;25061;51.954;6.996;2023-12-22T10:54:19;6.80;99.90
39345;DHT22;25061;51.954;6.996;2023-12-22T10:56:45;6.70;99.90
39345;DHT22;25061;51.954;6.996;2023-12-22T10:59:18;6.80;99.90
39345;DHT22;25061;51.954;6.996;2023-12-22T11:01:48;6.70;99.90
39345;DHT22;25061;51.954;6.996;2023-12-22T11:04:18;6.70;99.90
39345;DHT22;25061;51.954;6.996;2023-12-22T11:06:47;6.80;99.90
39345;DHT22;25061;51.954;6.996;2023-12-22T11:09:17;6.90;99.90
39345;DHT22;25061;51.954;6.996;2023-12-22T11:11:45;6.90;99.90
39345;DHT22;25061;51.954;6.996;2023-12-22T11:14:15;6.90;99.90
39345;DHT22;25061;51.954;6.996;2023-12-22T11:16:41;6.80;99.90
39345;DHT22;25061;51.954;6.996;2023-12-22T11:19:14;6.70;99.90
39345;DHT22;25061;51.954;6.996;2023-12-22T11:21:40;6.50;99.90
39345;DHT22;25061;51.954;6.996;2023-12-22T11:24:07;6.40;99.90
39345;DHT22;25061;51.954;6.996;2023-12-22T11:26:33;6.30;99.90
39345;DHT22;25061;51.954;6.996;2023-12-22T11:28:59;6.30;99.90
39345;DHT22;25061;51.954;6.996;2023-12-22T11:31:27;6.30;99.90
39345;DHT22;25061;51.954;6.996;2023-12-22T11:33:58;6.20;99.90
39345;DHT22;25061;51.954;6.996;2023-12-22T11:36:29;6.20;99.90
39345;DHT22;25061;51.954;6.996;2023-12-22T11:38:56;6.20;99.90
39345;DHT22;25061;51.954;6.996;2023-12-22T11:41:26;6.00;99.90
39345;DHT22;25061;51.954;6.996;2023-12-22T11:43:54;6.00;99.90
39345;DHT22;25061;51.954;6.996;2023-12-22T11:46:20;6.00;99.90
39345;DHT22;25061;51.954;6.996;2023-12-22T11:48:49;6.00;99.90
39345;DHT22;25061;51.954;6.996;2023-12-22T11:51:16;6.00;99.90
39345;DHT22;25061;51.954;6.996;2023-12-22T11:53:43;6.10;99.90
39345;DHT22;25061;51.954;6.996;2023-12-22T11:56:09;6.10;99.90
39345;DHT22;25061;51.954;6.996;2023-12-22T12:01:21;6.20;99.90
39345;DHT22;25061;51.954;6.996;2023-12-22T12:03:58;6.10;99.90
39345;DHT22;25061;51.954;6.996;2023-12-22T12:08:55;6.10;99.90
39345;DHT22;25061;51.954;6.996;2023-12-22T12:11:23;6.20;99.90
39345;DHT22;25061;51.954;6.996;2023-12-22T12:13:50;6.20;99.90
39345;DHT22;25061;51.954;6.996;2023-12-22T12:16:21;6.20;99.90
39345;DHT22;25061;51.954;6.996;2023-12-22T12:18:50;6.20;99.90
39345;DHT22;25061;51.954;6.996;2023-12-22T12:21:18;6.10;99.90
39345;DHT22;25061;51.954;6.996;2023-12-22T12:23:44;6.20;99.90
39345;DHT22;25061;51.954;6.996;2023-12-22T12:26:11;6.20;99.90
39345;DHT22;25061;51.954;6.996;2023-12-22T12:28:40;6.30;99.90
39345;DHT22;25061;51.954;6.996;2023-12-22T12:31:09;6.20;99.90
39345;DHT22;25061;51.954;6.996;2023-12-22T12:33:35;6.30;99.90
39345;DHT22;25061;51.954;6.996;2023-12-22T12:36:02;6.30;99.90
39345;DHT22;25061;51.954;6.996;2023-12-22T12:41:41;6.30;99.90
39345;DHT22;25061;51.954;6.996;2023-12-22T12:44:08;6.30;99.90
39345;DHT22;25061;51.954;6.996;2023-12-22T12:46:38;6.30;99.90
39345;DHT22;25061;51.954;6.996;2023-12-22T12:49:10;6.40;99.90
39345;DHT22;25061;51.954;6.996;2023-12-22T12:51:46;6.50;99.90
39345;DHT22;25061;51.954;6.996;2023-12-22T12:54:13;6.50;99.90
39345;DHT22;25061;51.954;6.996;2023-12-22T12:56:39;6.50;99.90
39345;DHT22;25061;51.954;6.996;2023-12-22T12:59:15;6.50;99.90
39345;DHT22;25061;51.954;6.996;2023-12-22T13:01:57;6.60;99.90
39345;DHT22;25061;51.954;6.996;2023-12-22T13:04:23;6.60;99.90
39345;DHT22;25061;51.954;6.996;2023-12-22T13:06:50;6.50;99.90
39345;DHT22;25061;51.954;6.996;2023-12-22T13:09:16;6.40;99.90
39345;DHT22;25061;51.954;6.996;2023-12-22T13:11:43;6.40;99.90
39345;DHT22;25061;51.954;6.996;2023-12-22T13:14:11;6.40;99.90
39345;DHT22;25061;51.954;6.996;2023-12-22T13:16:39;6.50;99.90
39345;DHT22;25061;51.954;6.996;2023-12-22T13:19:05;6.50;99.90
39345;DHT22;25061;51.954;6.996;2023-12-22T13:21:31;6.50;99.90
39345;DHT22;25061;51.954;6.996;2023-12-22T13:26:36;6.50;99.90
39345;DHT22;25061;51.954;6.996;2023-12-22T13:29:02;6.40;99.90
